sensor_id;sensor_type;location;lat;lon;timestamp;P1;durP1;ratioP1;P2;durP2;ratioP2
6077;SDS011;3067;49.470;10.394;2024-03-08T00:02:08;37.20;;;15.97;;
6077;SDS011;3067;49.470;10.394;2024-03-08T00:04:35;30.70;;;15.30;;
6077;SDS011;3067;49.470;10.394;2024-03-08T00:07:02;30.53;;;15.23;;
6077;SDS011;3067;49.470;10.394;2024-03-08T00:09:30;29.07;;;15.00;;
6077;SDS011;3067;49.470;10.394;2024-03-08T00:11:58;36.30;;;15.80;;
6077;SDS011;3067;49.470;10.394;2024-03-08T00:14:25;29.50;;;15.10;;
6077;SDS011;3067;49.470;10.394;2024-03-08T00:16:52;29.80;;;14.43;;
6077;SDS011;3067;49.470;10.394;2024-03-08T00:19:19;28.60;;;15.37;;
6077;SDS011;3067;49.470;10.394;2024-03-08T00:21:46;26.37;;;14.63;;
6077;SDS011;3067;49.470;10.394;2024-03-08T00:24:13;31.30;;;14.87;;
6077;SDS011;3067;49.470;10.394;2024-03-08T00:26:40;31.73;;;15.60;;
6077;SDS011;3067;49.470;10.394;2024-03-08T00:29:09;29.67;;;15.70;;
6077;SDS011;3067;49.470;10.394;2024-03-08T00:31:38;27.73;;;15.07;;
6077;SDS011;3067;49.470;10.394;2024-03-08T00:34:06;30.37;;;14.20;;
6077;SDS011;3067;49.470;10.394;2024-03-08T00:36:36;32.43;;;15.27;;
6077;SDS011;3067;49.470;10.394;2024-03-08T00:39:04;28.53;;;15.67;;
6077;SDS011;3067;49.470;10.394;2024-03-08T00:41:32;30.10;;;14.93;;
6077;SDS011;3067;49.470;10.394;2024-03-08T00:43:59;33.73;;;14.53;;
6077;SDS011;3067;49.470;10.394;2024-03-08T00:46:27;32.40;;;15.87;;
6077;SDS011;3067;49.470;10.394;2024-03-08T00:48:56;25.60;;;14.73;;
6077;SDS011;3067;49.470;10.394;2024-03-08T00:51:23;31.17;;;15.20;;
6077;SDS011;3067;49.470;10.394;2024-03-08T00:53:51;32.40;;;15.20;;
6077;SDS011;3067;49.470;10.394;2024-03-08T00:56:18;29.10;;;15.70;;
6077;SDS011;3067;49.470;10.394;2024-03-08T00:58:45;30.10;;;15.10;;
6077;SDS011;3067;49.470;10.394;2024-03-08T01:01:12;26.27;;;14.00;;
6077;SDS011;3067;49.470;10.394;2024-03-08T01:03:43;33.60;;;15.97;;
6077;SDS011;3067;49.470;10.394;2024-03-08T01:06:10;32.20;;;15.67;;
6077;SDS011;3067;49.470;10.394;2024-03-08T01:08:37;34.60;;;16.37;;
6077;SDS011;3067;49.470;10.394;2024-03-08T01:11:07;32.07;;;15.50;;
6077;SDS011;3067;49.470;10.394;2024-03-08T01:13:34;27.60;;;14.70;;
6077;SDS011;3067;49.470;10.394;2024-03-08T01:16:01;28.97;;;14.60;;
6077;SDS011;3067;49.470;10.394;2024-03-08T01:18:29;27.97;;;14.00;;
6077;SDS011;3067;49.470;10.394;2024-03-08T01:20:57;30.57;;;16.10;;
6077;SDS011;3067;49.470;10.394;2024-03-08T01:23:24;28.33;;;14.00;;
6077;SDS011;3067;49.470;10.394;2024-03-08T01:25:51;29.60;;;15.77;;
6077;SDS011;3067;49.470;10.394;2024-03-08T01:28:22;30.10;;;15.50;;
6077;SDS011;3067;49.470;10.394;2024-03-08T01:30:49;28.03;;;14.30;;
6077;SDS011;3067;49.470;10.394;2024-03-08T01:33:20;28.67;;;14.83;;
6077;SDS011;3067;49.470;10.394;2024-03-08T01:35:49;28.10;;;15.57;;
6077;SDS011;3067;49.470;10.394;2024-03-08T01:38:17;33.83;;;16.90;;
6077;SDS011;3067;49.470;10.394;2024-03-08T01:40:46;33.63;;;16.43;;
6077;SDS011;3067;49.470;10.394;2024-03-08T01:43:19;31.40;;;14.73;;
6077;SDS011;3067;49.470;10.394;2024-03-08T01:45:47;36.00;;;17.17;;
6077;SDS011;3067;49.470;10.394;2024-03-08T01:48:14;33.13;;;15.50;;
6077;SDS011;3067;49.470;10.394;2024-03-08T01:50:42;31.53;;;15.23;;
6077;SDS011;3067;49.470;10.394;2024-03-08T01:53:10;31.13;;;15.50;;
6077;SDS011;3067;49.470;10.394;2024-03-08T01:55:41;30.10;;;15.20;;
6077;SDS011;3067;49.470;10.394;2024-03-08T01:58:11;32.87;;;15.90;;
6077;SDS011;3067;49.470;10.394;2024-03-08T02:00:40;31.00;;;15.70;;
6077;SDS011;3067;49.470;10.394;2024-03-08T02:03:10;31.07;;;16.40;;
6077;SDS011;3067;49.470;10.394;2024-03-08T02:05:37;30.87;;;14.83;;
6077;SDS011;3067;49.470;10.394;2024-03-08T02:08:06;33.63;;;16.20;;
6077;SDS011;3067;49.470;10.394;2024-03-08T02:10:38;33.10;;;16.20;;
6077;SDS011;3067;49.470;10.394;2024-03-08T02:13:06;30.77;;;16.10;;
6077;SDS011;3067;49.470;10.394;2024-03-08T02:15:49;33.90;;;16.00;;
6077;SDS011;3067;49.470;10.394;2024-03-08T02:18:17;39.07;;;15.17;;
6077;SDS011;3067;49.470;10.394;2024-03-08T02:20:46;30.03;;;15.53;;
6077;SDS011;3067;49.470;10.394;2024-03-08T02:23:13;33.03;;;15.33;;
6077;SDS011;3067;49.470;10.394;2024-03-08T02:25:41;33.53;;;16.40;;
6077;SDS011;3067;49.470;10.394;2024-03-08T02:28:09;28.67;;;15.23;;
6077;SDS011;3067;49.470;10.394;2024-03-08T02:30:36;33.90;;;16.00;;
6077;SDS011;3067;49.470;10.394;2024-03-08T02:33:04;29.03;;;15.80;;
6077;SDS011;3067;49.470;10.394;2024-03-08T02:35:31;30.97;;;14.80;;
6077;SDS011;3067;49.470;10.394;2024-03-08T02:37:59;30.50;;;15.90;;
6077;SDS011;3067;49.470;10.394;2024-03-08T02:40:27;30.47;;;15.13;;
6077;SDS011;3067;49.470;10.394;2024-03-08T02:42:54;33.57;;;16.40;;
6077;SDS011;3067;49.470;10.394;2024-03-08T02:45:21;29.57;;;14.73;;
6077;SDS011;3067;49.470;10.394;2024-03-08T02:47:48;31.63;;;16.03;;
6077;SDS011;3067;49.470;10.394;2024-03-08T02:50:15;28.27;;;14.67;;
6077;SDS011;3067;49.470;10.394;2024-03-08T02:52:42;34.73;;;16.70;;
6077;SDS011;3067;49.470;10.394;2024-03-08T02:55:13;27.93;;;15.53;;
6077;SDS011;3067;49.470;10.394;2024-03-08T02:57:41;36.20;;;16.67;;
6077;SDS011;3067;49.470;10.394;2024-03-08T03:00:09;42.80;;;15.57;;
6077;SDS011;3067;49.470;10.394;2024-03-08T03:02:36;34.57;;;15.27;;
6077;SDS011;3067;49.470;10.394;2024-03-08T03:05:04;39.77;;;16.53;;
6077;SDS011;3067;49.470;10.394;2024-03-08T03:07:32;29.50;;;15.23;;
6077;SDS011;3067;49.470;10.394;2024-03-08T03:09:59;34.50;;;16.73;;
6077;SDS011;3067;49.470;10.394;2024-03-08T03:12:28;31.63;;;16.00;;
6077;SDS011;3067;49.470;10.394;2024-03-08T03:14:55;29.37;;;14.90;;
6077;SDS011;3067;49.470;10.394;2024-03-08T03:17:23;36.73;;;17.00;;
6077;SDS011;3067;49.470;10.394;2024-03-08T03:19:50;31.20;;;15.93;;
6077;SDS011;3067;49.470;10.394;2024-03-08T03:22:18;32.53;;;15.67;;
6077;SDS011;3067;49.470;10.394;2024-03-08T03:24:45;31.87;;;16.00;;
6077;SDS011;3067;49.470;10.394;2024-03-08T03:27:12;31.87;;;15.53;;
6077;SDS011;3067;49.470;10.394;2024-03-08T03:29:41;27.50;;;14.87;;
6077;SDS011;3067;49.470;10.394;2024-03-08T03:32:10;31.17;;;15.77;;
6077;SDS011;3067;49.470;10.394;2024-03-08T03:34:37;32.13;;;16.00;;
6077;SDS011;3067;49.470;10.394;2024-03-08T03:37:05;39.57;;;17.20;;
6077;SDS011;3067;49.470;10.394;2024-03-08T03:39:33;29.97;;;14.73;;
6077;SDS011;3067;49.470;10.394;2024-03-08T03:42:05;28.77;;;16.80;;
6077;SDS011;3067;49.470;10.394;2024-03-08T03:44:33;33.83;;;16.17;;
6077;SDS011;3067;49.470;10.394;2024-03-08T03:47:01;33.63;;;16.23;;
6077;SDS011;3067;49.470;10.394;2024-03-08T03:49:28;29.40;;;15.33;;
6077;SDS011;3067;49.470;10.394;2024-03-08T03:51:55;35.17;;;18.20;;
6077;SDS011;3067;49.470;10.394;2024-03-08T03:54:22;33.00;;;17.33;;
6077;SDS011;3067;49.470;10.394;2024-03-08T03:56:49;31.63;;;16.20;;
6077;SDS011;3067;49.470;10.394;2024-03-08T03:59:18;31.90;;;15.47;;
6077;SDS011;3067;49.470;10.394;2024-03-08T04:01:45;36.80;;;16.90;;
6077;SDS011;3067;49.470;10.394;2024-03-08T04:04:14;33.33;;;16.70;;
6077;SDS011;3067;49.470;10.394;2024-03-08T04:06:41;39.43;;;17.03;;
6077;SDS011;3067;49.470;10.394;2024-03-08T04:09:09;29.33;;;14.07;;
6077;SDS011;3067;49.470;10.394;2024-03-08T04:11:36;29.97;;;14.20;;
6077;SDS011;3067;49.470;10.394;2024-03-08T04:14:03;34.27;;;16.13;;
6077;SDS011;3067;49.470;10.394;2024-03-08T04:16:30;33.20;;;15.80;;
6077;SDS011;3067;49.470;10.394;2024-03-08T04:18:57;28.97;;;15.20;;
6077;SDS011;3067;49.470;10.394;2024-03-08T04:21:26;33.57;;;16.80;;
6077;SDS011;3067;49.470;10.394;2024-03-08T04:23:53;29.93;;;14.77;;
6077;SDS011;3067;49.470;10.394;2024-03-08T04:26:20;31.83;;;17.40;;
6077;SDS011;3067;49.470;10.394;2024-03-08T04:28:47;34.37;;;17.30;;
6077;SDS011;3067;49.470;10.394;2024-03-08T04:31:14;30.43;;;16.33;;
6077;SDS011;3067;49.470;10.394;2024-03-08T04:33:40;36.27;;;16.33;;
6077;SDS011;3067;49.470;10.394;2024-03-08T04:36:09;30.97;;;16.53;;
6077;SDS011;3067;49.470;10.394;2024-03-08T04:38:40;36.87;;;16.57;;
6077;SDS011;3067;49.470;10.394;2024-03-08T04:41:07;31.47;;;15.30;;
6077;SDS011;3067;49.470;10.394;2024-03-08T04:43:35;27.93;;;15.67;;
6077;SDS011;3067;49.470;10.394;2024-03-08T04:46:02;31.10;;;15.00;;
6077;SDS011;3067;49.470;10.394;2024-03-08T04:48:30;34.60;;;16.67;;
6077;SDS011;3067;49.470;10.394;2024-03-08T04:50:57;33.53;;;16.30;;
6077;SDS011;3067;49.470;10.394;2024-03-08T04:53:25;30.33;;;15.63;;
6077;SDS011;3067;49.470;10.394;2024-03-08T04:55:53;37.53;;;15.80;;
6077;SDS011;3067;49.470;10.394;2024-03-08T04:58:22;30.47;;;16.10;;
6077;SDS011;3067;49.470;10.394;2024-03-08T05:00:50;32.13;;;16.33;;
6077;SDS011;3067;49.470;10.394;2024-03-08T05:03:17;29.20;;;15.80;;
6077;SDS011;3067;49.470;10.394;2024-03-08T05:05:44;36.40;;;16.87;;
6077;SDS011;3067;49.470;10.394;2024-03-08T05:08:11;33.10;;;15.00;;
6077;SDS011;3067;49.470;10.394;2024-03-08T05:10:38;34.60;;;16.70;;
6077;SDS011;3067;49.470;10.394;2024-03-08T05:13:06;37.90;;;17.43;;
6077;SDS011;3067;49.470;10.394;2024-03-08T05:15:33;31.40;;;16.20;;
6077;SDS011;3067;49.470;10.394;2024-03-08T05:18:01;30.10;;;15.30;;
6077;SDS011;3067;49.470;10.394;2024-03-08T05:20:29;33.53;;;16.67;;
6077;SDS011;3067;49.470;10.394;2024-03-08T05:22:56;34.27;;;16.93;;
6077;SDS011;3067;49.470;10.394;2024-03-08T05:25:24;32.27;;;16.33;;
6077;SDS011;3067;49.470;10.394;2024-03-08T05:27:51;38.73;;;17.13;;
6077;SDS011;3067;49.470;10.394;2024-03-08T05:30:20;30.77;;;16.30;;
6077;SDS011;3067;49.470;10.394;2024-03-08T05:32:47;34.60;;;15.70;;
6077;SDS011;3067;49.470;10.394;2024-03-08T05:35:14;37.47;;;18.60;;
6077;SDS011;3067;49.470;10.394;2024-03-08T05:37:41;40.60;;;17.80;;
6077;SDS011;3067;49.470;10.394;2024-03-08T05:40:08;33.37;;;15.43;;
6077;SDS011;3067;49.470;10.394;2024-03-08T05:42:36;39.20;;;18.13;;
6077;SDS011;3067;49.470;10.394;2024-03-08T05:45:03;37.03;;;17.50;;
6077;SDS011;3067;49.470;10.394;2024-03-08T05:47:32;36.20;;;16.50;;
6077;SDS011;3067;49.470;10.394;2024-03-08T05:50:00;35.73;;;17.83;;
6077;SDS011;3067;49.470;10.394;2024-03-08T05:52:27;32.30;;;16.40;;
6077;SDS011;3067;49.470;10.394;2024-03-08T05:54:54;39.67;;;17.87;;
6077;SDS011;3067;49.470;10.394;2024-03-08T05:57:23;39.23;;;16.93;;
6077;SDS011;3067;49.470;10.394;2024-03-08T05:59:50;30.00;;;16.13;;
6077;SDS011;3067;49.470;10.394;2024-03-08T06:02:17;35.23;;;17.17;;
6077;SDS011;3067;49.470;10.394;2024-03-08T06:04:46;35.73;;;16.87;;
6077;SDS011;3067;49.470;10.394;2024-03-08T06:07:13;35.07;;;17.30;;
6077;SDS011;3067;49.470;10.394;2024-03-08T06:09:40;34.37;;;17.00;;
6077;SDS011;3067;49.470;10.394;2024-03-08T06:12:10;31.10;;;16.77;;
6077;SDS011;3067;49.470;10.394;2024-03-08T06:14:37;34.93;;;15.77;;
6077;SDS011;3067;49.470;10.394;2024-03-08T06:17:04;35.93;;;16.53;;
6077;SDS011;3067;49.470;10.394;2024-03-08T06:19:32;37.53;;;17.40;;
6077;SDS011;3067;49.470;10.394;2024-03-08T06:22:02;39.33;;;17.97;;
6077;SDS011;3067;49.470;10.394;2024-03-08T06:24:30;35.83;;;17.17;;
6077;SDS011;3067;49.470;10.394;2024-03-08T06:26:57;35.83;;;16.20;;
6077;SDS011;3067;49.470;10.394;2024-03-08T06:29:24;35.07;;;16.40;;
6077;SDS011;3067;49.470;10.394;2024-03-08T06:31:51;37.40;;;16.47;;
6077;SDS011;3067;49.470;10.394;2024-03-08T06:34:18;39.07;;;17.57;;
6077;SDS011;3067;49.470;10.394;2024-03-08T06:36:45;34.30;;;16.50;;
6077;SDS011;3067;49.470;10.394;2024-03-08T06:39:14;39.00;;;18.17;;
6077;SDS011;3067;49.470;10.394;2024-03-08T06:41:42;38.40;;;16.47;;
6077;SDS011;3067;49.470;10.394;2024-03-08T06:44:09;32.00;;;16.80;;
6077;SDS011;3067;49.470;10.394;2024-03-08T06:46:36;37.87;;;17.37;;
6077;SDS011;3067;49.470;10.394;2024-03-08T06:49:04;40.60;;;18.07;;
6077;SDS011;3067;49.470;10.394;2024-03-08T06:51:32;36.60;;;17.20;;
6077;SDS011;3067;49.470;10.394;2024-03-08T06:53:59;33.27;;;16.83;;
6077;SDS011;3067;49.470;10.394;2024-03-08T06:56:28;34.33;;;17.13;;
6077;SDS011;3067;49.470;10.394;2024-03-08T06:58:56;35.30;;;16.37;;
6077;SDS011;3067;49.470;10.394;2024-03-08T07:01:23;35.13;;;17.60;;
6077;SDS011;3067;49.470;10.394;2024-03-08T07:03:50;43.33;;;17.40;;
6077;SDS011;3067;49.470;10.394;2024-03-08T07:06:17;35.77;;;17.50;;
6077;SDS011;3067;49.470;10.394;2024-03-08T07:08:45;34.17;;;16.50;;
6077;SDS011;3067;49.470;10.394;2024-03-08T07:11:14;39.57;;;17.53;;
6077;SDS011;3067;49.470;10.394;2024-03-08T07:13:44;46.10;;;17.73;;
6077;SDS011;3067;49.470;10.394;2024-03-08T07:16:11;33.87;;;17.03;;
6077;SDS011;3067;49.470;10.394;2024-03-08T07:18:39;35.03;;;17.20;;
6077;SDS011;3067;49.470;10.394;2024-03-08T07:21:08;36.43;;;17.60;;
6077;SDS011;3067;49.470;10.394;2024-03-08T07:23:35;36.23;;;17.60;;
6077;SDS011;3067;49.470;10.394;2024-03-08T07:26:38;37.07;;;17.70;;
6077;SDS011;3067;49.470;10.394;2024-03-08T07:29:07;37.87;;;17.47;;
6077;SDS011;3067;49.470;10.394;2024-03-08T07:31:34;40.27;;;18.73;;
6077;SDS011;3067;49.470;10.394;2024-03-08T07:34:15;38.30;;;18.17;;
6077;SDS011;3067;49.470;10.394;2024-03-08T07:36:42;36.60;;;18.17;;
6077;SDS011;3067;49.470;10.394;2024-03-08T07:39:09;35.17;;;17.83;;
6077;SDS011;3067;49.470;10.394;2024-03-08T07:41:38;35.67;;;18.20;;
6077;SDS011;3067;49.470;10.394;2024-03-08T07:44:07;35.70;;;18.03;;
6077;SDS011;3067;49.470;10.394;2024-03-08T07:46:34;35.77;;;18.67;;
6077;SDS011;3067;49.470;10.394;2024-03-08T07:49:02;39.43;;;19.07;;
6077;SDS011;3067;49.470;10.394;2024-03-08T07:51:29;35.17;;;18.13;;
6077;SDS011;3067;49.470;10.394;2024-03-08T07:53:56;38.97;;;19.00;;
6077;SDS011;3067;49.470;10.394;2024-03-08T07:56:24;38.23;;;17.93;;
6077;SDS011;3067;49.470;10.394;2024-03-08T07:58:51;36.80;;;18.50;;
6077;SDS011;3067;49.470;10.394;2024-03-08T08:01:20;38.50;;;18.87;;
6077;SDS011;3067;49.470;10.394;2024-03-08T08:03:47;36.80;;;18.67;;
6077;SDS011;3067;49.470;10.394;2024-03-08T08:06:14;44.47;;;19.10;;
6077;SDS011;3067;49.470;10.394;2024-03-08T08:08:42;41.77;;;19.03;;
6077;SDS011;3067;49.470;10.394;2024-03-08T08:11:09;42.53;;;19.50;;
6077;SDS011;3067;49.470;10.394;2024-03-08T08:13:37;35.10;;;18.40;;
6077;SDS011;3067;49.470;10.394;2024-03-08T08:16:04;38.10;;;18.17;;
6077;SDS011;3067;49.470;10.394;2024-03-08T08:18:33;39.70;;;18.87;;
6077;SDS011;3067;49.470;10.394;2024-03-08T08:21:01;40.73;;;18.40;;
6077;SDS011;3067;49.470;10.394;2024-03-08T08:23:31;38.80;;;18.20;;
6077;SDS011;3067;49.470;10.394;2024-03-08T08:25:58;38.53;;;17.53;;
6077;SDS011;3067;49.470;10.394;2024-03-08T08:28:26;35.80;;;17.93;;
6077;SDS011;3067;49.470;10.394;2024-03-08T08:30:53;37.83;;;19.00;;
6077;SDS011;3067;49.470;10.394;2024-03-08T08:33:20;40.30;;;17.27;;
6077;SDS011;3067;49.470;10.394;2024-03-08T08:35:49;40.70;;;18.70;;
6077;SDS011;3067;49.470;10.394;2024-03-08T08:38:18;37.57;;;18.43;;
6077;SDS011;3067;49.470;10.394;2024-03-08T08:40:46;39.83;;;20.20;;
6077;SDS011;3067;49.470;10.394;2024-03-08T08:43:14;37.63;;;18.60;;
6077;SDS011;3067;49.470;10.394;2024-03-08T08:45:42;41.37;;;19.30;;
6077;SDS011;3067;49.470;10.394;2024-03-08T08:48:12;41.80;;;19.13;;
6077;SDS011;3067;49.470;10.394;2024-03-08T08:50:39;36.80;;;18.20;;
6077;SDS011;3067;49.470;10.394;2024-03-08T08:53:08;41.07;;;18.67;;
6077;SDS011;3067;49.470;10.394;2024-03-08T08:55:35;37.47;;;18.17;;
6077;SDS011;3067;49.470;10.394;2024-03-08T08:58:02;33.80;;;17.30;;
6077;SDS011;3067;49.470;10.394;2024-03-08T09:00:30;35.53;;;18.47;;
6077;SDS011;3067;49.470;10.394;2024-03-08T09:02:58;37.53;;;17.87;;
6077;SDS011;3067;49.470;10.394;2024-03-08T09:05:25;38.30;;;18.07;;
6077;SDS011;3067;49.470;10.394;2024-03-08T09:07:52;38.00;;;18.20;;
6077;SDS011;3067;49.470;10.394;2024-03-08T09:10:20;30.07;;;16.73;;
6077;SDS011;3067;49.470;10.394;2024-03-08T09:12:48;35.13;;;18.00;;
6077;SDS011;3067;49.470;10.394;2024-03-08T09:15:15;42.83;;;18.57;;
6077;SDS011;3067;49.470;10.394;2024-03-08T09:17:42;36.40;;;18.57;;
6077;SDS011;3067;49.470;10.394;2024-03-08T09:20:10;30.63;;;16.80;;
6077;SDS011;3067;49.470;10.394;2024-03-08T09:22:40;33.60;;;17.40;;
6077;SDS011;3067;49.470;10.394;2024-03-08T09:25:08;29.73;;;16.50;;
6077;SDS011;3067;49.470;10.394;2024-03-08T09:27:36;32.13;;;16.70;;
6077;SDS011;3067;49.470;10.394;2024-03-08T09:30:05;41.37;;;17.23;;
6077;SDS011;3067;49.470;10.394;2024-03-08T09:32:33;31.67;;;16.43;;
6077;SDS011;3067;49.470;10.394;2024-03-08T09:35:00;30.97;;;17.03;;
6077;SDS011;3067;49.470;10.394;2024-03-08T09:37:27;34.50;;;16.73;;
6077;SDS011;3067;49.470;10.394;2024-03-08T09:39:54;31.90;;;17.20;;
6077;SDS011;3067;49.470;10.394;2024-03-08T09:42:22;33.23;;;15.80;;
6077;SDS011;3067;49.470;10.394;2024-03-08T09:44:51;30.03;;;15.43;;
6077;SDS011;3067;49.470;10.394;2024-03-08T09:47:19;30.70;;;16.90;;
6077;SDS011;3067;49.470;10.394;2024-03-08T09:49:54;31.73;;;15.90;;
6077;SDS011;3067;49.470;10.394;2024-03-08T09:52:21;31.57;;;16.40;;
6077;SDS011;3067;49.470;10.394;2024-03-08T09:54:48;30.83;;;16.07;;
6077;SDS011;3067;49.470;10.394;2024-03-08T09:57:15;31.37;;;15.47;;
6077;SDS011;3067;49.470;10.394;2024-03-08T09:59:42;27.40;;;15.60;;
6077;SDS011;3067;49.470;10.394;2024-03-08T10:02:17;29.40;;;15.03;;
6077;SDS011;3067;49.470;10.394;2024-03-08T10:04:46;29.00;;;15.67;;
6077;SDS011;3067;49.470;10.394;2024-03-08T10:07:13;26.70;;;15.50;;
6077;SDS011;3067;49.470;10.394;2024-03-08T10:09:40;28.43;;;14.90;;
6077;SDS011;3067;49.470;10.394;2024-03-08T10:12:12;28.13;;;15.60;;
6077;SDS011;3067;49.470;10.394;2024-03-08T10:14:40;27.83;;;15.50;;
6077;SDS011;3067;49.470;10.394;2024-03-08T10:17:08;26.47;;;15.33;;
6077;SDS011;3067;49.470;10.394;2024-03-08T10:19:37;29.33;;;16.13;;
6077;SDS011;3067;49.470;10.394;2024-03-08T10:22:04;27.03;;;15.07;;
6077;SDS011;3067;49.470;10.394;2024-03-08T10:24:31;24.17;;;14.33;;
6077;SDS011;3067;49.470;10.394;2024-03-08T10:27:00;33.10;;;15.37;;
6077;SDS011;3067;49.470;10.394;2024-03-08T10:29:30;24.20;;;14.13;;
6077;SDS011;3067;49.470;10.394;2024-03-08T10:31:57;26.73;;;13.80;;
6077;SDS011;3067;49.470;10.394;2024-03-08T10:34:25;24.47;;;14.20;;
6077;SDS011;3067;49.470;10.394;2024-03-08T10:36:53;23.80;;;13.97;;
6077;SDS011;3067;49.470;10.394;2024-03-08T10:39:27;25.07;;;14.07;;
6077;SDS011;3067;49.470;10.394;2024-03-08T10:42:02;22.60;;;13.10;;
6077;SDS011;3067;49.470;10.394;2024-03-08T10:44:40;25.20;;;14.00;;
6077;SDS011;3067;49.470;10.394;2024-03-08T10:47:17;22.63;;;13.70;;
6077;SDS011;3067;49.470;10.394;2024-03-08T10:49:50;20.60;;;12.80;;
6077;SDS011;3067;49.470;10.394;2024-03-08T10:52:21;22.83;;;13.60;;
6077;SDS011;3067;49.470;10.394;2024-03-08T10:54:49;20.33;;;12.80;;
6077;SDS011;3067;49.470;10.394;2024-03-08T10:57:19;24.97;;;13.90;;
6077;SDS011;3067;49.470;10.394;2024-03-08T10:59:49;24.60;;;14.50;;
6077;SDS011;3067;49.470;10.394;2024-03-08T11:02:17;24.17;;;14.47;;
6077;SDS011;3067;49.470;10.394;2024-03-08T11:04:46;23.07;;;13.73;;
6077;SDS011;3067;49.470;10.394;2024-03-08T11:07:14;23.73;;;13.70;;
6077;SDS011;3067;49.470;10.394;2024-03-08T11:09:46;24.27;;;15.23;;
6077;SDS011;3067;49.470;10.394;2024-03-08T11:12:24;22.13;;;13.40;;
6077;SDS011;3067;49.470;10.394;2024-03-08T11:14:54;29.03;;;14.77;;
6077;SDS011;3067;49.470;10.394;2024-03-08T11:17:25;21.80;;;13.00;;
6077;SDS011;3067;49.470;10.394;2024-03-08T11:20:08;23.10;;;13.03;;
6077;SDS011;3067;49.470;10.394;2024-03-08T11:22:40;22.20;;;13.00;;
6077;SDS011;3067;49.470;10.394;2024-03-08T11:28:06;19.17;;;12.70;;
6077;SDS011;3067;49.470;10.394;2024-03-08T11:30:43;27.17;;;12.60;;
6077;SDS011;3067;49.470;10.394;2024-03-08T11:33:12;23.83;;;12.40;;
6077;SDS011;3067;49.470;10.394;2024-03-08T11:35:39;18.23;;;12.10;;
6077;SDS011;3067;49.470;10.394;2024-03-08T11:38:11;26.90;;;13.13;;
6077;SDS011;3067;49.470;10.394;2024-03-08T11:40:41;18.90;;;12.00;;
6077;SDS011;3067;49.470;10.394;2024-03-08T11:43:08;19.67;;;12.57;;
6077;SDS011;3067;49.470;10.394;2024-03-08T11:45:36;18.73;;;12.33;;
6077;SDS011;3067;49.470;10.394;2024-03-08T11:48:06;21.53;;;12.23;;
6077;SDS011;3067;49.470;10.394;2024-03-08T11:50:33;20.53;;;12.97;;
6077;SDS011;3067;49.470;10.394;2024-03-08T11:53:01;16.70;;;11.60;;
6077;SDS011;3067;49.470;10.394;2024-03-08T11:55:29;16.80;;;12.00;;
6077;SDS011;3067;49.470;10.394;2024-03-08T11:58:02;19.73;;;12.20;;
6077;SDS011;3067;49.470;10.394;2024-03-08T12:00:29;19.43;;;12.43;;
6077;SDS011;3067;49.470;10.394;2024-03-08T12:03:03;17.07;;;11.70;;
6077;SDS011;3067;49.470;10.394;2024-03-08T12:05:32;17.37;;;11.90;;
6077;SDS011;3067;49.470;10.394;2024-03-08T12:07:59;19.37;;;12.27;;
6077;SDS011;3067;49.470;10.394;2024-03-08T12:10:27;18.80;;;12.37;;
6077;SDS011;3067;49.470;10.394;2024-03-08T12:12:54;20.30;;;13.00;;
6077;SDS011;3067;49.470;10.394;2024-03-08T12:15:25;14.50;;;10.87;;
6077;SDS011;3067;49.470;10.394;2024-03-08T12:17:54;14.70;;;10.87;;
6077;SDS011;3067;49.470;10.394;2024-03-08T12:20:23;14.70;;;10.53;;
6077;SDS011;3067;49.470;10.394;2024-03-08T12:22:51;17.83;;;10.83;;
6077;SDS011;3067;49.470;10.394;2024-03-08T12:25:19;16.93;;;11.33;;
6077;SDS011;3067;49.470;10.394;2024-03-08T12:27:46;14.97;;;10.90;;
6077;SDS011;3067;49.470;10.394;2024-03-08T12:30:21;15.83;;;10.73;;
6077;SDS011;3067;49.470;10.394;2024-03-08T12:32:54;15.23;;;11.07;;
6077;SDS011;3067;49.470;10.394;2024-03-08T12:35:23;14.63;;;10.30;;
6077;SDS011;3067;49.470;10.394;2024-03-08T12:37:52;14.93;;;11.33;;
6077;SDS011;3067;49.470;10.394;2024-03-08T12:40:25;13.07;;;9.80;;
6077;SDS011;3067;49.470;10.394;2024-03-08T12:42:53;15.03;;;9.93;;
6077;SDS011;3067;49.470;10.394;2024-03-08T12:45:21;11.50;;;9.27;;
6077;SDS011;3067;49.470;10.394;2024-03-08T12:47:49;13.07;;;9.33;;
6077;SDS011;3067;49.470;10.394;2024-03-08T12:50:18;13.80;;;8.80;;
6077;SDS011;3067;49.470;10.394;2024-03-08T12:52:45;13.23;;;9.47;;
6077;SDS011;3067;49.470;10.394;2024-03-08T12:55:13;10.67;;;8.43;;
6077;SDS011;3067;49.470;10.394;2024-03-08T12:57:41;13.50;;;9.60;;
6077;SDS011;3067;49.470;10.394;2024-03-08T13:00:09;11.10;;;8.60;;
6077;SDS011;3067;49.470;10.394;2024-03-08T13:02:38;11.63;;;9.00;;
6077;SDS011;3067;49.470;10.394;2024-03-08T13:05:07;10.03;;;8.57;;
6077;SDS011;3067;49.470;10.394;2024-03-08T13:07:37;10.90;;;8.97;;
6077;SDS011;3067;49.470;10.394;2024-03-08T13:10:04;8.80;;;7.90;;
6077;SDS011;3067;49.470;10.394;2024-03-08T13:12:34;19.10;;;8.47;;
6077;SDS011;3067;49.470;10.394;2024-03-08T13:15:03;10.63;;;8.77;;
6077;SDS011;3067;49.470;10.394;2024-03-08T13:17:31;10.43;;;8.23;;
6077;SDS011;3067;49.470;10.394;2024-03-08T13:19:58;12.50;;;8.97;;
6077;SDS011;3067;49.470;10.394;2024-03-08T13:22:25;11.30;;;8.37;;
6077;SDS011;3067;49.470;10.394;2024-03-08T13:24:54;11.10;;;8.00;;
6077;SDS011;3067;49.470;10.394;2024-03-08T13:27:21;9.40;;;8.27;;
6077;SDS011;3067;49.470;10.394;2024-03-08T13:29:50;10.70;;;8.60;;
6077;SDS011;3067;49.470;10.394;2024-03-08T13:32:38;9.40;;;8.13;;
6077;SDS011;3067;49.470;10.394;2024-03-08T13:35:22;8.70;;;7.30;;
6077;SDS011;3067;49.470;10.394;2024-03-08T13:37:52;10.20;;;7.30;;
6077;SDS011;3067;49.470;10.394;2024-03-08T13:40:20;8.20;;;7.20;;
6077;SDS011;3067;49.470;10.394;2024-03-08T13:42:48;8.97;;;7.60;;
6077;SDS011;3067;49.470;10.394;2024-03-08T13:45:15;8.27;;;7.37;;
6077;SDS011;3067;49.470;10.394;2024-03-08T13:47:47;10.90;;;7.50;;
6077;SDS011;3067;49.470;10.394;2024-03-08T13:50:16;20.53;;;7.13;;
6077;SDS011;3067;49.470;10.394;2024-03-08T13:52:46;8.80;;;7.57;;
6077;SDS011;3067;49.470;10.394;2024-03-08T13:55:16;9.77;;;7.00;;
6077;SDS011;3067;49.470;10.394;2024-03-08T13:57:45;7.63;;;6.93;;
6077;SDS011;3067;49.470;10.394;2024-03-08T14:00:14;7.47;;;6.77;;
6077;SDS011;3067;49.470;10.394;2024-03-08T14:02:41;8.60;;;7.03;;
6077;SDS011;3067;49.470;10.394;2024-03-08T14:05:08;9.30;;;6.80;;
6077;SDS011;3067;49.470;10.394;2024-03-08T14:07:37;7.63;;;6.73;;
6077;SDS011;3067;49.470;10.394;2024-03-08T14:10:04;8.83;;;7.77;;
6077;SDS011;3067;49.470;10.394;2024-03-08T14:12:34;9.27;;;7.60;;
6077;SDS011;3067;49.470;10.394;2024-03-08T14:15:05;9.23;;;7.00;;
6077;SDS011;3067;49.470;10.394;2024-03-08T14:36:19;7.73;;;6.93;;
6077;SDS011;3067;49.470;10.394;2024-03-08T14:38:47;9.70;;;6.60;;
6077;SDS011;3067;49.470;10.394;2024-03-08T14:41:45;7.53;;;6.83;;
6077;SDS011;3067;49.470;10.394;2024-03-08T14:44:09;13.97;;;7.40;;
6077;SDS011;3067;49.470;10.394;2024-03-08T14:46:37;6.70;;;6.10;;
6077;SDS011;3067;49.470;10.394;2024-03-08T14:49:04;7.17;;;6.47;;
6077;SDS011;3067;49.470;10.394;2024-03-08T14:51:34;17.40;;;6.70;;
6077;SDS011;3067;49.470;10.394;2024-03-08T14:54:01;7.70;;;6.80;;
6077;SDS011;3067;49.470;10.394;2024-03-08T14:56:31;8.47;;;6.73;;
6077;SDS011;3067;49.470;10.394;2024-03-08T14:59:00;9.10;;;6.63;;
6077;SDS011;3067;49.470;10.394;2024-03-08T15:01:27;7.10;;;6.40;;
6077;SDS011;3067;49.470;10.394;2024-03-08T15:07:24;7.23;;;6.53;;
6077;SDS011;3067;49.470;10.394;2024-03-08T15:10:09;7.10;;;6.50;;
6077;SDS011;3067;49.470;10.394;2024-03-08T15:12:40;7.63;;;6.60;;